createdAt,value
2022-10-13T00:03:28.225Z,1.17
2022-10-13T00:08:33.081Z,1.00
2022-10-13T00:13:36.599Z,1.73
2022-10-13T00:18:40.292Z,1.57
2022-10-13T00:23:45.300Z,1.30
2022-10-13T00:28:52.547Z,1.00
2022-10-13T00:33:57.263Z,1.07
2022-10-13T00:39:02.199Z,1.33
2022-10-13T00:44:08.563Z,1.20
2022-10-13T00:49:15.230Z,1.27
2022-10-13T00:54:26.078Z,2.83
2022-10-13T00:59:30.036Z,2.47
2022-10-13T01:04:38.205Z,1.03
2022-10-13T01:09:43.208Z,1.20
2022-10-13T01:14:54.073Z,2.23
2022-10-13T01:20:35.768Z,1.20
2022-10-13T01:25:57.269Z,2.53
2022-10-13T01:31:09.246Z,1.17
2022-10-13T01:36:25.253Z,1.30
2022-10-13T01:41:35.305Z,1.53
2022-10-13T01:46:40.674Z,2.13
2022-10-13T01:51:45.619Z,2.07
2022-10-13T01:56:54.431Z,0.90
2022-10-13T02:02:08.449Z,1.67
2022-10-13T02:07:19.375Z,1.70
2022-10-13T02:12:31.102Z,1.20
2022-10-13T02:17:36.349Z,1.33
2022-10-13T02:22:44.607Z,1.67
2022-10-13T02:27:48.295Z,1.53
2022-10-13T02:32:53.204Z,1.43
2022-10-13T02:37:56.777Z,1.40
2022-10-13T02:43:00.540Z,1.70
2022-10-13T02:48:05.540Z,1.67
2022-10-13T02:53:09.000Z,2.20
2022-10-13T02:58:12.579Z,2.13
2022-10-13T03:03:17.454Z,1.50
2022-10-13T03:08:21.855Z,2.07
2022-10-13T03:13:25.806Z,1.80
2022-10-13T03:18:30.977Z,1.50
2022-10-13T03:23:34.696Z,1.50
2022-10-13T03:28:38.725Z,1.80
2022-10-13T03:33:43.716Z,2.27
2022-10-13T03:38:47.274Z,1.40
2022-10-13T03:43:50.838Z,1.53
2022-10-13T03:48:56.050Z,1.87
2022-10-13T03:54:00.009Z,1.60
2022-10-13T03:59:04.942Z,1.80
2022-10-13T04:04:12.150Z,2.50
2022-10-13T04:09:18.224Z,2.13
2022-10-13T04:14:22.153Z,2.50
2022-10-13T04:19:27.043Z,2.23
2022-10-13T04:24:30.901Z,1.67
2022-10-13T04:29:34.425Z,1.57
2022-10-13T04:34:39.286Z,1.47
2022-10-13T04:39:42.759Z,1.20
2022-10-13T04:44:46.289Z,1.37
2022-10-13T04:49:52.724Z,1.70
2022-10-13T04:54:56.197Z,1.30
2022-10-13T04:59:59.711Z,2.27
2022-10-13T05:05:10.615Z,1.57
2022-10-13T05:10:14.903Z,1.83
2022-10-13T05:15:18.520Z,2.07
2022-10-13T05:20:23.676Z,2.50
2022-10-13T05:25:31.476Z,1.37
2022-10-13T05:30:37.159Z,1.30
2022-10-13T05:35:41.980Z,2.10
2022-10-13T05:40:45.472Z,1.40
2022-10-13T05:45:49.037Z,1.90
2022-10-13T05:50:55.125Z,1.30
2022-10-13T05:56:06.235Z,1.80
2022-10-13T06:01:13.012Z,1.47
2022-10-13T06:06:17.972Z,1.43
2022-10-13T06:11:21.463Z,2.80
2022-10-13T06:16:24.937Z,1.50
2022-10-13T06:21:30.962Z,1.60
2022-10-13T06:26:34.547Z,1.40
2022-10-13T06:31:38.548Z,1.60
2022-10-13T06:36:45.487Z,1.63
2022-10-13T06:41:50.455Z,1.90
2022-10-13T06:46:53.999Z,3.20
2022-10-13T06:52:00.353Z,1.70
2022-10-13T06:57:09.570Z,1.70
2022-10-13T07:02:13.101Z,2.17
2022-10-13T07:07:17.981Z,2.90
2022-10-13T07:12:22.430Z,2.37
2022-10-13T07:17:26.114Z,1.83
2022-10-13T07:22:31.401Z,1.67
2022-10-13T07:27:34.970Z,1.87
2022-10-13T07:32:39.130Z,1.60
2022-10-13T07:37:44.356Z,2.00
2022-10-13T07:42:47.931Z,2.80
2022-10-13T07:47:51.462Z,4.80
2022-10-13T07:52:56.745Z,2.40
2022-10-13T07:58:02.571Z,2.07
2022-10-13T08:03:10.634Z,2.37
2022-10-13T08:08:15.514Z,3.03
2022-10-13T08:13:19.003Z,2.80
2022-10-13T08:18:22.497Z,2.70
2022-10-13T08:23:27.402Z,3.50
2022-10-13T08:28:31.379Z,4.00
2022-10-13T08:33:34.962Z,4.03
2022-10-13T08:38:40.285Z,3.07
2022-10-13T08:44:13.672Z,3.40
2022-10-13T08:49:10.343Z,3.93
2022-10-13T08:54:19.583Z,3.27
2022-10-13T08:59:23.306Z,3.80
2022-10-13T09:04:31.874Z,3.93
2022-10-13T09:09:37.750Z,4.17
2022-10-13T09:14:42.237Z,3.17
2022-10-13T09:19:57.743Z,2.73
2022-10-13T09:25:20.291Z,2.83
2022-10-13T09:30:32.275Z,3.23
2022-10-13T09:35:38.809Z,3.83
2022-10-13T09:40:45.252Z,2.73
2022-10-13T09:45:49.020Z,4.80
2022-10-13T09:50:55.746Z,6.20
2022-10-13T09:56:18.354Z,3.57
2022-10-13T10:01:26.966Z,4.40
2022-10-13T10:06:30.611Z,4.37
2022-10-13T10:11:42.408Z,3.17
2022-10-13T10:16:51.943Z,3.63
2022-10-13T10:22:03.997Z,3.87
2022-10-13T10:27:21.636Z,3.67
2022-10-13T10:32:33.151Z,4.10
2022-10-13T10:37:58.894Z,3.03
2022-10-13T10:43:44.729Z,3.23
2022-10-13T10:48:50.862Z,3.00
2022-10-13T10:54:01.043Z,2.70
2022-10-13T10:59:21.656Z,2.67
2022-10-13T11:04:41.258Z,3.50
2022-10-13T11:10:21.235Z,3.50
2022-10-13T11:15:27.473Z,2.20
2022-10-13T11:20:57.964Z,3.83
2022-10-13T11:26:31.189Z,4.17
2022-10-13T11:31:52.153Z,3.40
2022-10-13T11:37:01.099Z,5.23
2022-10-13T11:42:19.589Z,3.20
2022-10-13T11:47:53.800Z,4.47
2022-10-13T11:53:17.296Z,2.90
2022-10-13T11:58:23.449Z,2.80
2022-10-13T12:03:31.502Z,2.60
2022-10-13T12:08:37.041Z,1.60
2022-10-13T12:13:40.637Z,2.20
2022-10-13T12:18:45.912Z,1.70
2022-10-13T12:23:50.940Z,1.60
2022-10-13T12:28:57.128Z,1.80
2022-10-13T12:34:03.779Z,2.30
2022-10-13T12:39:13.064Z,1.50
2022-10-13T12:44:18.923Z,2.07
2022-10-13T12:49:25.616Z,1.20
2022-10-13T12:54:31.557Z,1.40
2022-10-13T12:59:35.521Z,1.00
2022-10-13T13:04:44.873Z,1.17
2022-10-13T13:10:14.276Z,1.53
2022-10-13T13:15:36.797Z,1.27
2022-10-13T13:20:40.304Z,1.20
2022-10-13T13:25:45.199Z,1.20
2022-10-13T13:30:48.786Z,2.37
2022-10-13T13:35:53.290Z,1.07
2022-10-13T13:41:02.927Z,0.93
2022-10-13T13:46:13.572Z,1.60
2022-10-13T13:51:17.797Z,1.40
2022-10-13T13:56:23.382Z,3.00
2022-10-13T14:01:26.957Z,1.20
2022-10-13T14:06:31.324Z,2.77
2022-10-13T14:11:36.247Z,1.17
2022-10-13T14:16:41.426Z,1.27
2022-10-13T14:21:45.916Z,1.30
2022-10-13T14:26:55.792Z,1.60
2022-10-13T14:31:59.394Z,1.27
2022-10-13T14:37:02.929Z,1.20
2022-10-13T14:42:07.855Z,1.73
2022-10-13T14:47:11.343Z,1.67
2022-10-13T14:52:14.873Z,1.27
2022-10-13T14:57:20.205Z,1.20
2022-10-13T15:02:23.871Z,1.77
2022-10-13T15:07:30.197Z,1.83
2022-10-13T15:12:35.471Z,1.20
2022-10-13T15:17:39.014Z,1.60
2022-10-13T15:22:42.731Z,1.50
2022-10-13T15:27:49.276Z,1.53
2022-10-13T15:32:53.030Z,1.80
2022-10-13T15:37:56.520Z,1.77
2022-10-13T15:43:01.367Z,1.53
2022-10-13T15:48:06.963Z,1.83
2022-10-13T15:53:10.515Z,1.63
2022-10-13T15:58:18.664Z,1.97
2022-10-13T16:03:22.156Z,1.57
2022-10-13T16:08:28.712Z,2.07
2022-10-13T16:13:33.598Z,1.73
2022-10-13T16:18:39.130Z,1.57
2022-10-13T16:23:42.716Z,1.97
2022-10-13T16:28:50.763Z,1.80
2022-10-13T16:33:55.629Z,1.80
2022-10-13T16:39:00.073Z,2.30
2022-10-13T16:44:04.986Z,1.77
2022-10-13T16:49:08.526Z,3.27
2022-10-13T16:54:12.076Z,3.13
2022-10-13T16:59:16.965Z,2.30
2022-10-13T17:04:24.205Z,1.80
2022-10-13T17:09:27.858Z,3.13
2022-10-13T17:14:33.026Z,3.10
2022-10-13T17:19:36.756Z,2.53
2022-10-13T17:24:42.920Z,2.03
2022-10-13T17:29:47.880Z,3.87
2022-10-13T17:34:51.623Z,2.43
2022-10-13T17:39:55.162Z,4.07
2022-10-13T17:45:00.398Z,2.57
2022-10-13T17:50:04.052Z,2.37
2022-10-13T17:55:08.047Z,2.00
2022-10-13T18:00:14.689Z,6.67
2022-10-13T18:05:18.719Z,2.50
2022-10-13T18:10:24.517Z,2.33
2022-10-13T18:15:29.928Z,1.80
2022-10-13T18:20:33.501Z,1.77
2022-10-13T18:25:38.654Z,1.90
2022-10-13T18:30:43.511Z,1.50
2022-10-13T18:35:47.076Z,1.27
2022-10-13T18:40:50.553Z,1.17
2022-10-13T18:46:00.604Z,1.57
2022-10-13T18:51:05.625Z,1.10
2022-10-13T18:56:12.492Z,0.87
2022-10-13T19:01:19.314Z,1.73
2022-10-13T19:06:26.743Z,0.87
2022-10-13T19:11:31.390Z,0.93
2022-10-13T19:16:40.312Z,1.20
2022-10-13T19:21:45.529Z,1.10
2022-10-13T19:26:49.052Z,1.27
2022-10-13T19:31:53.944Z,1.80
2022-10-13T19:37:00.043Z,1.07
2022-10-13T19:42:03.636Z,1.80
2022-10-13T19:47:08.967Z,1.20
2022-10-13T19:52:12.614Z,1.00
2022-10-13T19:57:16.818Z,1.20
2022-10-13T20:02:21.701Z,0.70
2022-10-13T20:07:25.238Z,0.60
2022-10-13T20:12:28.739Z,0.97
2022-10-13T20:17:33.736Z,1.00
2022-10-13T20:22:37.246Z,1.00
2022-10-13T20:27:40.745Z,0.80
2022-10-13T20:32:47.288Z,0.93
2022-10-13T20:37:50.849Z,0.57
2022-10-13T20:42:56.464Z,0.73
2022-10-13T20:48:01.443Z,0.80
2022-10-13T20:53:08.098Z,1.87
2022-10-13T20:58:11.895Z,1.63
2022-10-13T21:03:19.173Z,1.10
2022-10-13T21:08:24.621Z,0.67
2022-10-13T21:13:28.108Z,0.83
2022-10-13T21:18:33.142Z,1.17
2022-10-13T21:23:37.095Z,0.90
2022-10-13T21:28:40.718Z,0.93
2022-10-13T21:33:45.693Z,0.67
2022-10-13T21:38:51.837Z,0.90
2022-10-13T21:43:55.762Z,1.60
2022-10-13T21:49:02.029Z,1.83
2022-10-13T21:54:10.180Z,0.83
2022-10-13T21:59:15.817Z,1.80
2022-10-13T22:04:21.122Z,1.50
2022-10-13T22:09:24.741Z,0.80
2022-10-13T22:14:29.879Z,0.83
2022-10-13T22:19:35.200Z,0.90
2022-10-13T22:24:39.005Z,1.13
2022-10-13T22:29:42.506Z,0.93
2022-10-13T22:34:47.380Z,0.90
2022-10-13T22:39:50.942Z,0.90
2022-10-13T22:44:54.501Z,1.13
2022-10-13T22:49:59.467Z,1.03
2022-10-13T22:55:03.055Z,1.20
2022-10-13T23:00:09.928Z,0.90
2022-10-13T23:05:16.602Z,0.97
2022-10-13T23:10:20.124Z,1.00
2022-10-13T23:15:23.665Z,0.77
2022-10-13T23:20:28.610Z,0.83
2022-10-13T23:25:32.306Z,0.80
2022-10-13T23:30:35.794Z,1.10
2022-10-13T23:35:40.662Z,2.07
2022-10-13T23:40:44.218Z,1.10
2022-10-13T23:45:48.326Z,1.50
2022-10-13T23:50:53.174Z,1.03
2022-10-13T23:55:56.692Z,1.20
